sensor_id;sensor_type;location;lat;lon;timestamp;P1;durP1;ratioP1;P2;durP2;ratioP2
47966;SDS011;33733;52.456;13.620;2023-08-20T00:02:01;13.20;;;7.25;;
47966;SDS011;33733;52.456;13.620;2023-08-20T00:04:28;11.68;;;7.28;;
47966;SDS011;33733;52.456;13.620;2023-08-20T00:06:57;10.02;;;6.55;;
47966;SDS011;33733;52.456;13.620;2023-08-20T00:09:24;10.25;;;5.60;;
47966;SDS011;33733;52.456;13.620;2023-08-20T00:11:53;9.57;;;5.80;;
47966;SDS011;33733;52.456;13.620;2023-08-20T00:14:19;8.77;;;5.18;;
47966;SDS011;33733;52.456;13.620;2023-08-20T00:16:46;10.95;;;6.28;;
47966;SDS011;33733;52.456;13.620;2023-08-20T00:19:13;10.40;;;6.07;;
47966;SDS011;33733;52.456;13.620;2023-08-20T00:21:43;10.63;;;6.05;;
47966;SDS011;33733;52.456;13.620;2023-08-20T00:24:11;10.50;;;6.40;;
47966;SDS011;33733;52.456;13.620;2023-08-20T00:26:38;9.48;;;6.13;;
47966;SDS011;33733;52.456;13.620;2023-08-20T00:29:05;10.10;;;5.65;;
47966;SDS011;33733;52.456;13.620;2023-08-20T00:31:34;10.00;;;6.20;;
47966;SDS011;33733;52.456;13.620;2023-08-20T00:34:01;10.45;;;6.25;;
47966;SDS011;33733;52.456;13.620;2023-08-20T00:36:33;9.43;;;5.82;;
47966;SDS011;33733;52.456;13.620;2023-08-20T00:38:59;9.70;;;6.03;;
47966;SDS011;33733;52.456;13.620;2023-08-20T00:41:26;9.73;;;6.10;;
47966;SDS011;33733;52.456;13.620;2023-08-20T00:43:53;10.45;;;6.03;;
47966;SDS011;33733;52.456;13.620;2023-08-20T00:46:19;9.57;;;5.90;;
47966;SDS011;33733;52.456;13.620;2023-08-20T00:48:46;10.30;;;6.15;;
47966;SDS011;33733;52.456;13.620;2023-08-20T00:51:13;9.77;;;5.95;;
47966;SDS011;33733;52.456;13.620;2023-08-20T00:53:39;9.90;;;6.05;;
47966;SDS011;33733;52.456;13.620;2023-08-20T00:56:06;10.70;;;6.53;;
47966;SDS011;33733;52.456;13.620;2023-08-20T00:58:33;10.98;;;6.10;;
47966;SDS011;33733;52.456;13.620;2023-08-20T01:01:00;9.77;;;5.65;;
47966;SDS011;33733;52.456;13.620;2023-08-20T01:03:27;8.85;;;5.47;;
47966;SDS011;33733;52.456;13.620;2023-08-20T01:05:57;9.70;;;5.82;;
47966;SDS011;33733;52.456;13.620;2023-08-20T01:08:37;10.45;;;6.47;;
47966;SDS011;33733;52.456;13.620;2023-08-20T01:11:20;10.02;;;5.88;;
47966;SDS011;33733;52.456;13.620;2023-08-20T01:16:16;11.20;;;6.13;;
47966;SDS011;33733;52.456;13.620;2023-08-20T01:18:43;9.00;;;5.85;;
47966;SDS011;33733;52.456;13.620;2023-08-20T01:21:13;9.35;;;5.80;;
47966;SDS011;33733;52.456;13.620;2023-08-20T01:24:10;10.00;;;6.03;;
47966;SDS011;33733;52.456;13.620;2023-08-20T01:27:10;13.73;;;6.40;;
47966;SDS011;33733;52.456;13.620;2023-08-20T01:30:04;10.13;;;6.30;;
47966;SDS011;33733;52.456;13.620;2023-08-20T01:32:31;11.88;;;6.30;;
47966;SDS011;33733;52.456;13.620;2023-08-20T01:34:58;10.13;;;6.15;;
47966;SDS011;33733;52.456;13.620;2023-08-20T01:37:25;11.45;;;6.70;;
47966;SDS011;33733;52.456;13.620;2023-08-20T01:39:52;12.10;;;5.95;;
47966;SDS011;33733;52.456;13.620;2023-08-20T01:42:18;10.43;;;6.32;;
47966;SDS011;33733;52.456;13.620;2023-08-20T01:44:45;9.13;;;5.45;;
47966;SDS011;33733;52.456;13.620;2023-08-20T01:47:12;11.65;;;6.80;;
47966;SDS011;33733;52.456;13.620;2023-08-20T01:49:38;9.27;;;5.50;;
47966;SDS011;33733;52.456;13.620;2023-08-20T01:52:05;10.65;;;6.30;;
47966;SDS011;33733;52.456;13.620;2023-08-20T01:54:32;10.10;;;6.38;;
47966;SDS011;33733;52.456;13.620;2023-08-20T01:56:59;10.15;;;5.65;;
47966;SDS011;33733;52.456;13.620;2023-08-20T01:59:25;9.75;;;5.65;;
47966;SDS011;33733;52.456;13.620;2023-08-20T02:01:52;10.27;;;6.00;;
47966;SDS011;33733;52.456;13.620;2023-08-20T02:04:19;10.20;;;5.65;;
47966;SDS011;33733;52.456;13.620;2023-08-20T02:06:45;9.40;;;5.43;;
47966;SDS011;33733;52.456;13.620;2023-08-20T02:09:12;11.88;;;6.85;;
47966;SDS011;33733;52.456;13.620;2023-08-20T02:11:40;10.00;;;6.03;;
47966;SDS011;33733;52.456;13.620;2023-08-20T02:14:06;10.27;;;6.60;;
47966;SDS011;33733;52.456;13.620;2023-08-20T02:16:33;9.15;;;5.72;;
47966;SDS011;33733;52.456;13.620;2023-08-20T02:19:00;8.73;;;4.82;;
47966;SDS011;33733;52.456;13.620;2023-08-20T02:21:29;9.18;;;5.47;;
47966;SDS011;33733;52.456;13.620;2023-08-20T02:23:56;10.30;;;5.55;;
47966;SDS011;33733;52.456;13.620;2023-08-20T02:26:22;8.30;;;5.10;;
47966;SDS011;33733;52.456;13.620;2023-08-20T02:28:49;8.70;;;4.25;;
47966;SDS011;33733;52.456;13.620;2023-08-20T02:31:16;8.73;;;4.85;;
47966;SDS011;33733;52.456;13.620;2023-08-20T02:33:46;9.55;;;5.15;;
47966;SDS011;33733;52.456;13.620;2023-08-20T02:36:13;8.98;;;5.05;;
47966;SDS011;33733;52.456;13.620;2023-08-20T02:38:40;8.23;;;4.60;;
47966;SDS011;33733;52.456;13.620;2023-08-20T02:41:07;9.18;;;5.28;;
47966;SDS011;33733;52.456;13.620;2023-08-20T02:43:33;7.85;;;4.60;;
47966;SDS011;33733;52.456;13.620;2023-08-20T02:46:00;8.77;;;4.70;;
47966;SDS011;33733;52.456;13.620;2023-08-20T02:48:27;8.55;;;4.68;;
47966;SDS011;33733;52.456;13.620;2023-08-20T02:50:55;8.90;;;4.60;;
47966;SDS011;33733;52.456;13.620;2023-08-20T02:53:22;8.38;;;4.65;;
47966;SDS011;33733;52.456;13.620;2023-08-20T02:55:49;8.90;;;4.70;;
47966;SDS011;33733;52.456;13.620;2023-08-20T02:58:15;7.85;;;4.38;;
47966;SDS011;33733;52.456;13.620;2023-08-20T03:00:42;8.02;;;4.72;;
47966;SDS011;33733;52.456;13.620;2023-08-20T03:03:11;9.23;;;5.05;;
47966;SDS011;33733;52.456;13.620;2023-08-20T03:05:42;9.23;;;4.63;;
47966;SDS011;33733;52.456;13.620;2023-08-20T03:08:08;8.35;;;4.43;;
47966;SDS011;33733;52.456;13.620;2023-08-20T03:10:36;8.65;;;5.13;;
47966;SDS011;33733;52.456;13.620;2023-08-20T03:13:03;8.10;;;4.70;;
47966;SDS011;33733;52.456;13.620;2023-08-20T03:15:30;8.00;;;4.30;;
47966;SDS011;33733;52.456;13.620;2023-08-20T03:17:57;8.80;;;4.72;;
47966;SDS011;33733;52.456;13.620;2023-08-20T03:20:23;8.45;;;4.45;;
47966;SDS011;33733;52.456;13.620;2023-08-20T03:22:51;8.10;;;4.50;;
47966;SDS011;33733;52.456;13.620;2023-08-20T03:25:18;11.07;;;4.78;;
47966;SDS011;33733;52.456;13.620;2023-08-20T03:27:45;7.95;;;4.70;;
47966;SDS011;33733;52.456;13.620;2023-08-20T03:30:12;10.73;;;4.75;;
47966;SDS011;33733;52.456;13.620;2023-08-20T03:32:43;8.30;;;4.40;;
47966;SDS011;33733;52.456;13.620;2023-08-20T03:35:10;8.55;;;5.05;;
47966;SDS011;33733;52.456;13.620;2023-08-20T03:37:37;8.70;;;4.72;;
47966;SDS011;33733;52.456;13.620;2023-08-20T03:40:04;9.50;;;4.80;;
47966;SDS011;33733;52.456;13.620;2023-08-20T03:42:31;8.32;;;4.22;;
47966;SDS011;33733;52.456;13.620;2023-08-20T03:44:58;8.18;;;4.07;;
47966;SDS011;33733;52.456;13.620;2023-08-20T03:47:24;8.30;;;4.60;;
47966;SDS011;33733;52.456;13.620;2023-08-20T03:49:51;8.93;;;4.85;;
47966;SDS011;33733;52.456;13.620;2023-08-20T03:52:18;9.77;;;4.30;;
47966;SDS011;33733;52.456;13.620;2023-08-20T03:54:45;9.73;;;4.35;;
47966;SDS011;33733;52.456;13.620;2023-08-20T03:57:12;9.88;;;4.75;;
47966;SDS011;33733;52.456;13.620;2023-08-20T03:59:38;8.88;;;4.72;;
47966;SDS011;33733;52.456;13.620;2023-08-20T04:02:05;7.82;;;4.10;;
47966;SDS011;33733;52.456;13.620;2023-08-20T04:04:33;9.27;;;4.10;;
47966;SDS011;33733;52.456;13.620;2023-08-20T04:07:00;7.55;;;3.53;;
47966;SDS011;33733;52.456;13.620;2023-08-20T04:09:26;10.55;;;4.28;;
47966;SDS011;33733;52.456;13.620;2023-08-20T04:11:53;7.68;;;4.40;;
47966;SDS011;33733;52.456;13.620;2023-08-20T04:14:20;9.68;;;4.88;;
47966;SDS011;33733;52.456;13.620;2023-08-20T04:16:46;8.13;;;4.60;;
47966;SDS011;33733;52.456;13.620;2023-08-20T04:19:13;7.72;;;4.35;;
47966;SDS011;33733;52.456;13.620;2023-08-20T04:21:40;9.45;;;4.25;;
47966;SDS011;33733;52.456;13.620;2023-08-20T04:24:07;7.70;;;4.35;;
47966;SDS011;33733;52.456;13.620;2023-08-20T04:26:34;7.35;;;3.97;;
47966;SDS011;33733;52.456;13.620;2023-08-20T04:29:01;8.85;;;4.20;;
47966;SDS011;33733;52.456;13.620;2023-08-20T04:31:29;9.25;;;4.47;;
47966;SDS011;33733;52.456;13.620;2023-08-20T04:34:01;8.07;;;3.97;;
47966;SDS011;33733;52.456;13.620;2023-08-20T04:36:38;8.70;;;4.13;;
47966;SDS011;33733;52.456;13.620;2023-08-20T04:39:04;7.88;;;3.90;;
47966;SDS011;33733;52.456;13.620;2023-08-20T04:41:36;8.40;;;3.67;;
47966;SDS011;33733;52.456;13.620;2023-08-20T04:44:03;9.30;;;4.13;;
47966;SDS011;33733;52.456;13.620;2023-08-20T04:46:30;8.50;;;4.13;;
47966;SDS011;33733;52.456;13.620;2023-08-20T04:48:57;6.90;;;3.88;;
47966;SDS011;33733;52.456;13.620;2023-08-20T04:51:24;9.23;;;4.15;;
47966;SDS011;33733;52.456;13.620;2023-08-20T04:53:51;9.90;;;4.15;;
47966;SDS011;33733;52.456;13.620;2023-08-20T04:56:17;7.13;;;3.63;;
47966;SDS011;33733;52.456;13.620;2023-08-20T04:58:45;7.45;;;3.95;;
47966;SDS011;33733;52.456;13.620;2023-08-20T05:01:18;6.93;;;3.60;;
47966;SDS011;33733;52.456;13.620;2023-08-20T05:03:45;9.00;;;4.15;;
47966;SDS011;33733;52.456;13.620;2023-08-20T05:06:12;8.38;;;4.40;;
47966;SDS011;33733;52.456;13.620;2023-08-20T05:08:39;7.28;;;3.80;;
47966;SDS011;33733;52.456;13.620;2023-08-20T05:11:07;10.68;;;4.32;;
47966;SDS011;33733;52.456;13.620;2023-08-20T05:13:34;8.20;;;3.75;;
47966;SDS011;33733;52.456;13.620;2023-08-20T05:16:00;8.05;;;4.93;;
47966;SDS011;33733;52.456;13.620;2023-08-20T05:18:28;7.95;;;4.22;;
47966;SDS011;33733;52.456;13.620;2023-08-20T05:20:54;7.93;;;4.25;;
47966;SDS011;33733;52.456;13.620;2023-08-20T05:23:21;8.20;;;3.50;;
47966;SDS011;33733;52.456;13.620;2023-08-20T05:25:48;7.72;;;4.15;;
47966;SDS011;33733;52.456;13.620;2023-08-20T05:28:15;9.35;;;4.60;;
47966;SDS011;33733;52.456;13.620;2023-08-20T05:30:42;9.38;;;4.72;;
47966;SDS011;33733;52.456;13.620;2023-08-20T05:33:08;7.75;;;4.57;;
47966;SDS011;33733;52.456;13.620;2023-08-20T05:35:36;7.60;;;4.05;;
47966;SDS011;33733;52.456;13.620;2023-08-20T05:38:03;9.18;;;4.38;;
47966;SDS011;33733;52.456;13.620;2023-08-20T05:40:29;7.95;;;4.60;;
47966;SDS011;33733;52.456;13.620;2023-08-20T05:42:56;7.97;;;4.07;;
47966;SDS011;33733;52.456;13.620;2023-08-20T05:45:23;8.27;;;4.03;;
47966;SDS011;33733;52.456;13.620;2023-08-20T05:47:51;8.20;;;4.03;;
47966;SDS011;33733;52.456;13.620;2023-08-20T05:50:18;8.23;;;4.38;;
47966;SDS011;33733;52.456;13.620;2023-08-20T05:52:44;9.20;;;4.35;;
47966;SDS011;33733;52.456;13.620;2023-08-20T05:55:11;8.48;;;4.75;;
47966;SDS011;33733;52.456;13.620;2023-08-20T05:57:38;8.10;;;4.20;;
47966;SDS011;33733;52.456;13.620;2023-08-20T06:00:05;9.23;;;4.75;;
47966;SDS011;33733;52.456;13.620;2023-08-20T06:02:38;8.90;;;3.92;;
47966;SDS011;33733;52.456;13.620;2023-08-20T06:05:05;10.95;;;5.18;;
47966;SDS011;33733;52.456;13.620;2023-08-20T06:07:32;8.85;;;4.60;;
47966;SDS011;33733;52.456;13.620;2023-08-20T06:09:59;9.60;;;4.88;;
47966;SDS011;33733;52.456;13.620;2023-08-20T06:12:25;8.35;;;4.45;;
47966;SDS011;33733;52.456;13.620;2023-08-20T06:14:52;7.82;;;4.35;;
47966;SDS011;33733;52.456;13.620;2023-08-20T06:17:19;7.63;;;4.65;;
47966;SDS011;33733;52.456;13.620;2023-08-20T06:19:45;8.43;;;4.35;;
47966;SDS011;33733;52.456;13.620;2023-08-20T06:22:12;7.65;;;4.40;;
47966;SDS011;33733;52.456;13.620;2023-08-20T06:24:39;8.15;;;4.07;;
47966;SDS011;33733;52.456;13.620;2023-08-20T06:27:05;8.52;;;4.43;;
47966;SDS011;33733;52.456;13.620;2023-08-20T06:29:32;8.85;;;4.60;;
47966;SDS011;33733;52.456;13.620;2023-08-20T06:31:58;8.70;;;4.10;;
47966;SDS011;33733;52.456;13.620;2023-08-20T06:34:25;8.00;;;4.32;;
47966;SDS011;33733;52.456;13.620;2023-08-20T06:36:52;8.95;;;4.82;;
47966;SDS011;33733;52.456;13.620;2023-08-20T06:39:18;10.48;;;4.97;;
47966;SDS011;33733;52.456;13.620;2023-08-20T06:41:46;10.40;;;4.40;;
47966;SDS011;33733;52.456;13.620;2023-08-20T06:44:19;8.10;;;4.13;;
47966;SDS011;33733;52.456;13.620;2023-08-20T06:46:45;10.20;;;4.78;;
47966;SDS011;33733;52.456;13.620;2023-08-20T06:49:12;8.52;;;4.65;;
47966;SDS011;33733;52.456;13.620;2023-08-20T06:51:39;12.30;;;4.70;;
47966;SDS011;33733;52.456;13.620;2023-08-20T06:54:05;7.57;;;4.25;;
47966;SDS011;33733;52.456;13.620;2023-08-20T06:56:32;8.85;;;3.88;;
47966;SDS011;33733;52.456;13.620;2023-08-20T06:59:00;8.38;;;4.20;;
47966;SDS011;33733;52.456;13.620;2023-08-20T07:01:27;8.55;;;3.90;;
47966;SDS011;33733;52.456;13.620;2023-08-20T07:03:54;8.20;;;4.07;;
47966;SDS011;33733;52.456;13.620;2023-08-20T07:06:21;8.73;;;4.43;;
47966;SDS011;33733;52.456;13.620;2023-08-20T07:08:47;8.38;;;4.72;;
47966;SDS011;33733;52.456;13.620;2023-08-20T07:11:16;8.70;;;4.45;;
47966;SDS011;33733;52.456;13.620;2023-08-20T07:13:43;10.48;;;5.07;;
47966;SDS011;33733;52.456;13.620;2023-08-20T07:16:09;8.68;;;4.60;;
47966;SDS011;33733;52.456;13.620;2023-08-20T07:18:36;8.00;;;4.15;;
47966;SDS011;33733;52.456;13.620;2023-08-20T07:21:03;8.07;;;4.82;;
47966;SDS011;33733;52.456;13.620;2023-08-20T07:23:29;10.00;;;4.95;;
47966;SDS011;33733;52.456;13.620;2023-08-20T07:26:14;8.75;;;3.92;;
47966;SDS011;33733;52.456;13.620;2023-08-20T07:28:41;8.57;;;4.22;;
47966;SDS011;33733;52.456;13.620;2023-08-20T07:31:24;7.00;;;4.07;;
47966;SDS011;33733;52.456;13.620;2023-08-20T07:33:52;8.65;;;4.40;;
47966;SDS011;33733;52.456;13.620;2023-08-20T07:36:19;8.10;;;3.97;;
47966;SDS011;33733;52.456;13.620;2023-08-20T07:38:48;8.60;;;4.55;;
47966;SDS011;33733;52.456;13.620;2023-08-20T07:41:15;8.40;;;4.30;;
47966;SDS011;33733;52.456;13.620;2023-08-20T07:43:42;9.18;;;5.03;;
47966;SDS011;33733;52.456;13.620;2023-08-20T07:46:09;8.88;;;4.32;;
47966;SDS011;33733;52.456;13.620;2023-08-20T07:48:36;9.10;;;4.22;;
47966;SDS011;33733;52.456;13.620;2023-08-20T07:51:03;8.75;;;4.40;;
47966;SDS011;33733;52.456;13.620;2023-08-20T07:53:30;8.02;;;3.95;;
47966;SDS011;33733;52.456;13.620;2023-08-20T07:55:57;7.60;;;4.25;;
47966;SDS011;33733;52.456;13.620;2023-08-20T07:58:24;9.52;;;4.85;;
47966;SDS011;33733;52.456;13.620;2023-08-20T08:00:50;7.13;;;4.18;;
47966;SDS011;33733;52.456;13.620;2023-08-20T08:03:17;8.68;;;4.47;;
47966;SDS011;33733;52.456;13.620;2023-08-20T08:05:47;8.20;;;3.90;;
47966;SDS011;33733;52.456;13.620;2023-08-20T08:08:15;8.95;;;4.43;;
47966;SDS011;33733;52.456;13.620;2023-08-20T08:10:42;8.35;;;3.63;;
47966;SDS011;33733;52.456;13.620;2023-08-20T08:13:11;7.53;;;3.75;;
47966;SDS011;33733;52.456;13.620;2023-08-20T08:15:38;8.38;;;4.45;;
47966;SDS011;33733;52.456;13.620;2023-08-20T08:18:05;8.60;;;4.30;;
47966;SDS011;33733;52.456;13.620;2023-08-20T08:20:33;7.30;;;4.03;;
47966;SDS011;33733;52.456;13.620;2023-08-20T08:23:00;8.95;;;4.75;;
47966;SDS011;33733;52.456;13.620;2023-08-20T08:25:27;8.77;;;4.75;;
47966;SDS011;33733;52.456;13.620;2023-08-20T08:27:54;7.75;;;4.25;;
47966;SDS011;33733;52.456;13.620;2023-08-20T08:30:26;9.43;;;4.55;;
47966;SDS011;33733;52.456;13.620;2023-08-20T08:32:53;8.20;;;4.43;;
47966;SDS011;33733;52.456;13.620;2023-08-20T08:35:19;9.90;;;4.90;;
47966;SDS011;33733;52.456;13.620;2023-08-20T08:37:46;8.18;;;3.92;;
47966;SDS011;33733;52.456;13.620;2023-08-20T08:40:13;8.35;;;4.45;;
47966;SDS011;33733;52.456;13.620;2023-08-20T08:42:40;7.70;;;4.03;;
47966;SDS011;33733;52.456;13.620;2023-08-20T08:45:07;9.13;;;4.50;;
47966;SDS011;33733;52.456;13.620;2023-08-20T08:47:35;8.38;;;4.30;;
47966;SDS011;33733;52.456;13.620;2023-08-20T08:50:03;7.57;;;4.35;;
47966;SDS011;33733;52.456;13.620;2023-08-20T08:52:30;8.25;;;4.43;;
47966;SDS011;33733;52.456;13.620;2023-08-20T08:54:58;10.80;;;4.88;;
47966;SDS011;33733;52.456;13.620;2023-08-20T08:57:24;10.73;;;4.20;;
47966;SDS011;33733;52.456;13.620;2023-08-20T08:59:51;8.77;;;4.43;;
47966;SDS011;33733;52.456;13.620;2023-08-20T09:02:17;9.77;;;4.38;;
47966;SDS011;33733;52.456;13.620;2023-08-20T09:04:45;9.48;;;4.60;;
47966;SDS011;33733;52.456;13.620;2023-08-20T09:07:12;8.57;;;4.47;;
47966;SDS011;33733;52.456;13.620;2023-08-20T09:09:43;8.95;;;4.93;;
47966;SDS011;33733;52.456;13.620;2023-08-20T09:12:17;8.30;;;4.03;;
47966;SDS011;33733;52.456;13.620;2023-08-20T09:14:48;9.85;;;4.25;;
47966;SDS011;33733;52.456;13.620;2023-08-20T09:17:16;9.15;;;4.70;;
47966;SDS011;33733;52.456;13.620;2023-08-20T09:19:43;8.23;;;3.85;;
47966;SDS011;33733;52.456;13.620;2023-08-20T09:22:11;8.93;;;3.97;;
47966;SDS011;33733;52.456;13.620;2023-08-20T09:24:39;8.68;;;4.75;;
47966;SDS011;33733;52.456;13.620;2023-08-20T09:27:13;7.60;;;3.83;;
47966;SDS011;33733;52.456;13.620;2023-08-20T09:29:55;9.77;;;4.75;;
47966;SDS011;33733;52.456;13.620;2023-08-20T09:32:24;7.75;;;3.97;;
47966;SDS011;33733;52.456;13.620;2023-08-20T09:34:53;7.38;;;4.07;;
47966;SDS011;33733;52.456;13.620;2023-08-20T09:37:21;6.70;;;3.67;;
47966;SDS011;33733;52.456;13.620;2023-08-20T09:39:49;9.27;;;4.30;;
47966;SDS011;33733;52.456;13.620;2023-08-20T09:42:16;7.15;;;3.85;;
47966;SDS011;33733;52.456;13.620;2023-08-20T09:44:43;9.63;;;3.83;;
47966;SDS011;33733;52.456;13.620;2023-08-20T09:47:15;6.93;;;3.75;;
47966;SDS011;33733;52.456;13.620;2023-08-20T09:49:43;7.80;;;3.70;;
47966;SDS011;33733;52.456;13.620;2023-08-20T09:52:11;10.00;;;3.92;;
47966;SDS011;33733;52.456;13.620;2023-08-20T09:54:45;7.10;;;3.28;;
47966;SDS011;33733;52.456;13.620;2023-08-20T09:57:50;8.93;;;3.65;;
47966;SDS011;33733;52.456;13.620;2023-08-20T10:00:15;7.13;;;3.53;;
47966;SDS011;33733;52.456;13.620;2023-08-20T10:02:42;7.18;;;4.00;;
47966;SDS011;33733;52.456;13.620;2023-08-20T10:05:09;8.27;;;3.67;;
47966;SDS011;33733;52.456;13.620;2023-08-20T10:10:05;7.85;;;3.80;;
47966;SDS011;33733;52.456;13.620;2023-08-20T10:12:32;7.55;;;3.42;;
47966;SDS011;33733;52.456;13.620;2023-08-20T10:15:00;7.78;;;3.65;;
47966;SDS011;33733;52.456;13.620;2023-08-20T10:17:30;6.18;;;3.03;;
47966;SDS011;33733;52.456;13.620;2023-08-20T10:19:58;6.28;;;3.28;;
47966;SDS011;33733;52.456;13.620;2023-08-20T10:22:38;6.25;;;2.95;;
47966;SDS011;33733;52.456;13.620;2023-08-20T10:25:16;8.25;;;3.35;;
47966;SDS011;33733;52.456;13.620;2023-08-20T10:27:48;6.32;;;3.38;;
47966;SDS011;33733;52.456;13.620;2023-08-20T10:30:18;6.60;;;3.00;;
47966;SDS011;33733;52.456;13.620;2023-08-20T10:32:55;6.45;;;2.92;;
47966;SDS011;33733;52.456;13.620;2023-08-20T10:35:27;6.53;;;3.03;;
47966;SDS011;33733;52.456;13.620;2023-08-20T10:48:56;6.00;;;2.88;;
47966;SDS011;33733;52.456;13.620;2023-08-20T10:59:21;5.60;;;2.92;;
47966;SDS011;33733;52.456;13.620;2023-08-20T11:01:49;4.93;;;1.90;;
47966;SDS011;33733;52.456;13.620;2023-08-20T11:06:46;5.40;;;1.75;;
47966;SDS011;33733;52.456;13.620;2023-08-20T11:09:16;4.65;;;1.52;;
47966;SDS011;33733;52.456;13.620;2023-08-20T11:11:43;7.75;;;2.30;;
47966;SDS011;33733;52.456;13.620;2023-08-20T11:14:13;5.30;;;1.70;;
47966;SDS011;33733;52.456;13.620;2023-08-20T11:16:41;4.47;;;1.48;;
47966;SDS011;33733;52.456;13.620;2023-08-20T11:19:10;4.32;;;1.48;;
47966;SDS011;33733;52.456;13.620;2023-08-20T11:21:40;3.75;;;1.15;;
47966;SDS011;33733;52.456;13.620;2023-08-20T11:24:08;4.63;;;1.50;;
47966;SDS011;33733;52.456;13.620;2023-08-20T11:26:37;6.03;;;1.50;;
47966;SDS011;33733;52.456;13.620;2023-08-20T11:29:06;4.60;;;1.42;;
47966;SDS011;33733;52.456;13.620;2023-08-20T11:31:33;4.53;;;1.40;;
47966;SDS011;33733;52.456;13.620;2023-08-20T11:34:01;4.00;;;1.25;;
47966;SDS011;33733;52.456;13.620;2023-08-20T11:36:29;4.00;;;1.45;;
47966;SDS011;33733;52.456;13.620;2023-08-20T11:38:56;4.55;;;1.45;;
47966;SDS011;33733;52.456;13.620;2023-08-20T11:41:23;4.43;;;1.25;;
47966;SDS011;33733;52.456;13.620;2023-08-20T11:43:51;4.43;;;1.15;;
47966;SDS011;33733;52.456;13.620;2023-08-20T11:51:47;4.10;;;1.27;;
47966;SDS011;33733;52.456;13.620;2023-08-20T11:54:16;3.75;;;1.42;;
47966;SDS011;33733;52.456;13.620;2023-08-20T11:56:44;3.90;;;1.50;;
47966;SDS011;33733;52.456;13.620;2023-08-20T11:59:14;3.80;;;1.20;;
47966;SDS011;33733;52.456;13.620;2023-08-20T12:01:42;3.90;;;1.38;;
47966;SDS011;33733;52.456;13.620;2023-08-20T12:04:09;4.22;;;1.45;;
47966;SDS011;33733;52.456;13.620;2023-08-20T12:06:37;4.07;;;1.08;;
47966;SDS011;33733;52.456;13.620;2023-08-20T12:09:22;2.75;;;0.88;;
47966;SDS011;33733;52.456;13.620;2023-08-20T12:11:52;3.85;;;1.10;;
47966;SDS011;33733;52.456;13.620;2023-08-20T12:14:22;3.00;;;1.10;;
47966;SDS011;33733;52.456;13.620;2023-08-20T12:16:49;3.15;;;1.05;;
47966;SDS011;33733;52.456;13.620;2023-08-20T12:19:17;4.30;;;1.50;;
47966;SDS011;33733;52.456;13.620;2023-08-20T12:21:44;3.55;;;1.27;;
47966;SDS011;33733;52.456;13.620;2023-08-20T12:24:10;3.20;;;1.38;;
47966;SDS011;33733;52.456;13.620;2023-08-20T12:26:38;3.83;;;1.10;;
47966;SDS011;33733;52.456;13.620;2023-08-20T12:29:05;3.55;;;1.10;;
47966;SDS011;33733;52.456;13.620;2023-08-20T12:31:32;4.55;;;1.80;;
47966;SDS011;33733;52.456;13.620;2023-08-20T12:34:00;3.20;;;1.35;;
47966;SDS011;33733;52.456;13.620;2023-08-20T12:36:27;3.58;;;0.88;;
47966;SDS011;33733;52.456;13.620;2023-08-20T12:38:54;4.22;;;1.13;;
47966;SDS011;33733;52.456;13.620;2023-08-20T12:41:21;5.88;;;2.70;;
47966;SDS011;33733;52.456;13.620;2023-08-20T12:43:47;4.13;;;0.98;;
47966;SDS011;33733;52.456;13.620;2023-08-20T12:46:14;4.70;;;1.17;;
47966;SDS011;33733;52.456;13.620;2023-08-20T12:48:41;3.13;;;1.00;;
47966;SDS011;33733;52.456;13.620;2023-08-20T12:51:07;3.78;;;1.30;;
47966;SDS011;33733;52.456;13.620;2023-08-20T12:53:34;3.88;;;1.13;;
47966;SDS011;33733;52.456;13.620;2023-08-20T12:56:04;3.75;;;0.93;;
47966;SDS011;33733;52.456;13.620;2023-08-20T12:58:31;3.58;;;1.08;;
47966;SDS011;33733;52.456;13.620;2023-08-20T13:00:57;3.35;;;1.10;;
47966;SDS011;33733;52.456;13.620;2023-08-20T13:03:24;3.92;;;1.02;;
47966;SDS011;33733;52.456;13.620;2023-08-20T13:05:51;3.40;;;1.10;;
47966;SDS011;33733;52.456;13.620;2023-08-20T13:08:18;3.20;;;0.98;;
47966;SDS011;33733;52.456;13.620;2023-08-20T13:10:47;3.42;;;1.00;;
47966;SDS011;33733;52.456;13.620;2023-08-20T13:13:21;3.25;;;1.15;;
47966;SDS011;33733;52.456;13.620;2023-08-20T13:15:50;3.88;;;1.35;;
47966;SDS011;33733;52.456;13.620;2023-08-20T13:18:18;2.80;;;0.80;;
47966;SDS011;33733;52.456;13.620;2023-08-20T13:20:45;4.93;;;1.25;;
47966;SDS011;33733;52.456;13.620;2023-08-20T13:23:11;3.97;;;1.13;;
47966;SDS011;33733;52.456;13.620;2023-08-20T13:25:38;3.88;;;1.15;;
47966;SDS011;33733;52.456;13.620;2023-08-20T13:28:05;3.05;;;0.93;;
47966;SDS011;33733;52.456;13.620;2023-08-20T13:30:32;3.53;;;1.27;;
47966;SDS011;33733;52.456;13.620;2023-08-20T13:32:59;3.72;;;1.10;;
47966;SDS011;33733;52.456;13.620;2023-08-20T13:35:27;4.88;;;1.27;;
47966;SDS011;33733;52.456;13.620;2023-08-20T13:37:54;12.48;;;4.15;;
47966;SDS011;33733;52.456;13.620;2023-08-20T13:40:20;4.50;;;1.50;;
47966;SDS011;33733;52.456;13.620;2023-08-20T13:42:47;5.55;;;1.58;;
47966;SDS011;33733;52.456;13.620;2023-08-20T13:45:14;7.07;;;2.10;;
47966;SDS011;33733;52.456;13.620;2023-08-20T13:47:40;10.15;;;2.88;;
47966;SDS011;33733;52.456;13.620;2023-08-20T13:50:07;4.10;;;1.10;;
47966;SDS011;33733;52.456;13.620;2023-08-20T13:52:34;4.47;;;1.20;;
47966;SDS011;33733;52.456;13.620;2023-08-20T13:55:01;3.63;;;1.08;;
47966;SDS011;33733;52.456;13.620;2023-08-20T13:57:29;4.90;;;1.38;;
47966;SDS011;33733;52.456;13.620;2023-08-20T13:59:56;3.60;;;1.50;;
47966;SDS011;33733;52.456;13.620;2023-08-20T14:02:23;3.78;;;0.93;;
47966;SDS011;33733;52.456;13.620;2023-08-20T14:04:49;4.70;;;1.60;;
47966;SDS011;33733;52.456;13.620;2023-08-20T14:07:17;4.45;;;1.00;;
47966;SDS011;33733;52.456;13.620;2023-08-20T14:09:44;4.00;;;0.70;;
47966;SDS011;33733;52.456;13.620;2023-08-20T14:12:11;4.25;;;0.98;;
47966;SDS011;33733;52.456;13.620;2023-08-20T14:14:37;3.88;;;1.13;;
47966;SDS011;33733;52.456;13.620;2023-08-20T14:17:04;2.78;;;0.70;;
47966;SDS011;33733;52.456;13.620;2023-08-20T14:19:30;4.13;;;1.55;;
47966;SDS011;33733;52.456;13.620;2023-08-20T14:21:57;6.00;;;1.52;;
47966;SDS011;33733;52.456;13.620;2023-08-20T14:24:24;4.18;;;0.88;;
47966;SDS011;33733;52.456;13.620;2023-08-20T14:26:51;3.80;;;0.85;;
47966;SDS011;33733;52.456;13.620;2023-08-20T14:29:17;2.95;;;0.80;;
47966;SDS011;33733;52.456;13.620;2023-08-20T14:31:44;6.35;;;1.15;;
47966;SDS011;33733;52.456;13.620;2023-08-20T14:34:10;2.65;;;0.63;;
47966;SDS011;33733;52.456;13.620;2023-08-20T14:36:37;2.50;;;0.63;;
47966;SDS011;33733;52.456;13.620;2023-08-20T14:39:04;3.20;;;0.70;;
47966;SDS011;33733;52.456;13.620;2023-08-20T14:41:32;5.05;;;1.05;;
47966;SDS011;33733;52.456;13.620;2023-08-20T14:43:59;3.75;;;1.15;;
47966;SDS011;33733;52.456;13.620;2023-08-20T14:46:25;3.92;;;0.88;;
47966;SDS011;33733;52.456;13.620;2023-08-20T14:48:52;2.60;;;0.70;;
47966;SDS011;33733;52.456;13.620;2023-08-20T14:51:21;3.58;;;0.63;;
47966;SDS011;33733;52.456;13.620;2023-08-20T14:53:48;3.60;;;0.65;;
47966;SDS011;33733;52.456;13.620;2023-08-20T14:56:15;3.42;;;0.80;;
47966;SDS011;33733;52.456;13.620;2023-08-20T14:58:41;3.15;;;0.90;;
47966;SDS011;33733;52.456;13.620;2023-08-20T15:01:08;3.03;;;0.70;;
47966;SDS011;33733;52.456;13.620;2023-08-20T15:03:35;2.88;;;0.55;;
47966;SDS011;33733;52.456;13.620;2023-08-20T15:06:02;4.05;;;0.75;;
47966;SDS011;33733;52.456;13.620;2023-08-20T15:08:29;3.75;;;0.93;;
47966;SDS011;33733;52.456;13.620;2023-08-20T15:10:56;3.42;;;0.85;;